Time;durP1;ratioP1;P1;durP2;ratioP2;P2;SDS_P1;SDS_P2;PMS_P1;PMS_P2;Temp;Humidity;BMP_temperature;BMP_pressure;BME280_temperature;BME280_humidity;BME280_pressure;Samples;Min_cycle;Max_cycle;Signal;HPM_P1;HPM_P2
2022/12/25 00:01:06;;;;;;;20.93;9.40;;;7.90;99.90;;;;;;5033723;28;20493;-67
2022/12/25 00:03:34;;;;;;;18.10;8.50;;;7.90;99.90;;;;;;5033936;28;20450;-68
2022/12/25 00:06:01;;;;;;;14.27;7.53;;;7.90;99.90;;;;;;5035514;28;20784;-68
2022/12/25 00:08:28;;;;;;;19.73;8.10;;;7.80;99.90;;;;;;5037462;28;20791;-66
2022/12/25 00:10:59;;;;;;;17.33;7.90;;;7.80;99.90;;;;;;5037342;28;20781;-66
2022/12/25 00:13:26;;;;;;;15.33;8.73;;;7.80;99.90;;;;;;5037078;28;20950;-68
2022/12/25 00:15:52;;;;;;;22.53;8.90;;;7.70;99.90;;;;;;5037673;28;20459;-67
2022/12/25 00:18:19;;;;;;;16.20;8.30;;;7.70;99.90;;;;;;5037708;28;20452;-68
2022/12/25 00:20:56;;;;;;;22.50;8.37;;;7.70;99.90;;;;;;5037101;28;20467;-66
2022/12/25 00:23:22;;;;;;;26.27;8.90;;;7.60;99.90;;;;;;5037450;28;20444;-67
2022/12/25 00:25:49;;;;;;;16.03;7.27;;;7.60;99.90;;;;;;5037376;28;20932;-67
2022/12/25 00:28:16;;;;;;;21.60;8.20;;;7.60;99.90;;;;;;5037187;28;20921;-66
2022/12/25 00:30:43;;;;;;;17.07;8.37;;;7.50;99.90;;;;;;5036907;28;20804;-67
2022/12/25 00:33:10;;;;;;;22.50;8.23;;;7.50;99.90;;;;;;5037293;28;20573;-68
2022/12/25 00:35:37;;;;;;;25.00;9.47;;;7.50;99.90;;;;;;5037203;28;20456;-66
2022/12/25 00:38:05;;;;;;;22.87;8.47;;;7.50;99.90;;;;;;5037685;28;20459;-67
2022/12/25 00:40:32;;;;;;;23.77;8.40;;;7.50;99.90;;;;;;5037074;28;20480;-68
2022/12/25 00:42:59;;;;;;;20.27;8.50;;;7.40;99.90;;;;;;5037098;28;20474;-67
2022/12/25 00:45:26;;;;;;;19.03;8.37;;;7.50;99.90;;;;;;5036615;28;20484;-67
2022/12/25 00:47:53;;;;;;;19.23;8.60;;;7.40;99.90;;;;;;5037164;28;20467;-67
2022/12/25 00:50:20;;;;;;;23.97;7.43;;;7.40;99.90;;;;;;5036677;28;20456;-67
2022/12/25 00:52:47;;;;;;;18.97;9.40;;;7.30;99.90;;;;;;5036744;28;20466;-67
2022/12/25 00:55:15;;;;;;;22.43;8.97;;;7.30;99.90;;;;;;5036818;28;20467;-67
2022/12/25 00:57:42;;;;;;;25.93;9.27;;;7.30;99.90;;;;;;5036446;28;20459;-67
2022/12/25 01:00:09;;;;;;;17.30;8.30;;;7.20;99.90;;;;;;5036514;28;20492;-67
2022/12/25 01:02:36;;;;;;;21.53;8.13;;;7.20;99.90;;;;;;5036264;28;20466;-67
2022/12/25 01:05:04;;;;;;;24.07;9.57;;;7.20;99.90;;;;;;5036877;28;20530;-67
2022/12/25 01:07:31;;;;;;;19.80;8.57;;;7.20;99.90;;;;;;5036378;28;20503;-68
2022/12/25 01:12:43;;;;;;;21.57;8.40;;;7.10;99.90;;;;;;5036305;28;20839;-67
2022/12/25 01:15:12;;;;;;;17.27;8.23;;;7.10;99.90;;;;;;5036317;28;20455;-67
2022/12/25 01:17:38;;;;;;;23.00;9.53;;;7.10;99.90;;;;;;5035427;28;20464;-68
2022/12/25 01:20:06;;;;;;;22.70;8.73;;;7.10;99.90;;;;;;5036179;28;20480;-68
2022/12/25 01:22:33;;;;;;;22.30;9.67;;;7.10;99.90;;;;;;5036726;28;20456;-67
2022/12/25 01:25:00;;;;;;;18.67;8.40;;;7.10;99.90;;;;;;5036227;28;20946;-68
2022/12/25 01:27:27;;;;;;;18.77;9.90;;;7.10;99.90;;;;;;5036235;28;20464;-67
2022/12/25 01:29:55;;;;;;;21.53;10.30;;;7.10;99.90;;;;;;5035776;28;20538;-67
2022/12/25 01:32:22;;;;;;;17.03;9.13;;;7.10;99.90;;;;;;5035839;28;20463;-67
2022/12/25 01:34:49;;;;;;;22.53;10.10;;;7.10;99.90;;;;;;5036113;28;20467;-68
2022/12/25 01:37:16;;;;;;;20.07;8.80;;;7.00;99.90;;;;;;5035694;28;20456;-67
2022/12/25 01:39:43;;;;;;;21.23;9.70;;;7.00;99.90;;;;;;5035935;28;20480;-67
2022/12/25 01:42:16;;;;;;;21.80;9.87;;;7.00;99.90;;;;;;5035840;28;20563;-67
2022/12/25 01:45:23;;;;;;;18.20;8.80;;;7.00;99.90;;;;;;5035397;28;20449;-67
2022/12/25 01:47:51;;;;;;;27.57;9.70;;;7.00;99.90;;;;;;5035298;28;20450;-67
2022/12/25 01:50:18;;;;;;;28.77;9.70;;;7.00;99.90;;;;;;5035384;28;20448;-67
2022/12/25 01:52:46;;;;;;;22.07;10.13;;;6.90;99.90;;;;;;5035706;28;20452;-67
2022/12/25 01:55:13;;;;;;;21.30;8.90;;;6.90;99.90;;;;;;5035933;28;20466;-68
2022/12/25 01:57:41;;;;;;;19.93;10.23;;;6.90;99.90;;;;;;5036286;28;20555;-67
2022/12/25 02:00:12;;;;;;;19.60;9.03;;;6.90;99.90;;;;;;5036321;28;20507;-67
2022/12/25 02:02:41;;;;;;;21.53;9.30;;;6.90;99.90;;;;;;5035738;28;20478;-67
2022/12/25 02:05:16;;;;;;;25.60;9.97;;;6.90;99.90;;;;;;5035933;28;20455;-67
2022/12/25 02:07:45;;;;;;;25.37;9.97;;;6.90;99.90;;;;;;5036194;28;20779;-67
2022/12/25 02:10:12;;;;;;;29.37;10.77;;;6.90;99.90;;;;;;5035409;28;20456;-67
2022/12/25 02:12:40;;;;;;;29.87;9.23;;;6.80;99.90;;;;;;5035130;28;20928;-67
2022/12/25 02:15:10;;;;;;;20.30;9.23;;;6.80;99.90;;;;;;5035822;28;20460;-67
2022/12/25 02:17:45;;;;;;;23.23;9.90;;;6.80;99.90;;;;;;5034978;28;20471;-67
2022/12/25 02:20:40;;;;;;;16.60;10.60;;;6.80;99.90;;;;;;5035572;28;20468;-67
2022/12/25 02:23:28;;;;;;;24.90;9.97;;;6.80;99.90;;;;;;5032105;28;20459;-67
2022/12/25 02:26:13;;;;;;;19.00;8.13;;;6.80;99.90;;;;;;5034887;28;20440;-67
2022/12/25 02:28:51;;;;;;;23.67;9.40;;;6.80;99.90;;;;;;5034965;28;20455;-67
2022/12/25 02:31:22;;;;;;;20.10;9.07;;;6.80;99.90;;;;;;5035037;28;20887;-67
2022/12/25 02:34:03;;;;;;;21.20;8.77;;;6.80;99.90;;;;;;5034887;28;20452;-67
2022/12/25 02:36:37;;;;;;;21.70;10.23;;;6.70;99.90;;;;;;5035179;28;20464;-67
2022/12/25 02:41:58;;;;;;;25.70;10.53;;;6.70;99.90;;;;;;5035068;28;20812;-67
2022/12/25 03:07:08;;;;;;;22.10;9.50;;;6.50;99.90;;;;;;5020191;28;20509;-67
2022/12/25 03:12:37;;;;;;;15.20;8.73;;;6.50;99.90;;;;;;5034346;28;20424;-66
2022/12/25 03:17:52;;;;;;;21.30;8.93;;;6.40;99.90;;;;;;5034550;28;20749;-67
2022/12/25 03:28:32;;;;;;;18.17;9.60;;;6.40;99.90;;;;;;5034293;28;20907;-67
2022/12/25 03:31:10;;;;;;;14.87;8.77;;;6.40;99.90;;;;;;5033827;28;20456;-67
2022/12/25 03:36:43;;;;;;;20.33;8.10;;;6.30;99.90;;;;;;5033047;28;20492;-67
2022/12/25 04:37:24;;;;;;;20.97;9.77;;;6.00;99.90;;;;;;5017477;28;20425;-67
2022/12/25 04:39:52;;;;;;;18.00;9.80;;;6.00;99.90;;;;;;5017748;28;20485;-67
2022/12/25 04:42:19;;;;;;;19.10;9.53;;;6.00;99.90;;;;;;5017427;28;20456;-68
2022/12/25 04:44:46;;;;;;;25.63;10.90;;;6.00;99.90;;;;;;5017071;28;20457;-67
2022/12/25 04:47:13;;;;;;;16.10;9.27;;;5.90;99.90;;;;;;5035610;28;20827;-67
2022/12/25 04:49:40;;;;;;;18.90;10.30;;;5.90;99.90;;;;;;5036802;28;20458;-67
2022/12/25 04:52:07;;;;;;;25.03;11.00;;;5.90;99.90;;;;;;5035785;28;20760;-67
2022/12/25 04:54:33;;;;;;;24.40;10.90;;;5.90;99.90;;;;;;5037183;28;20464;-67
2022/12/25 04:57:02;;;;;;;19.00;10.90;;;5.90;99.90;;;;;;5036518;28;20466;-67
2022/12/25 04:59:28;;;;;;;23.30;10.50;;;5.90;99.90;;;;;;5036261;28;20460;-67
2022/12/25 05:01:55;;;;;;;24.10;9.67;;;5.90;99.90;;;;;;5036358;28;20468;-67
2022/12/25 05:04:22;;;;;;;19.50;9.03;;;5.80;99.90;;;;;;5036552;28;20456;-68
2022/12/25 05:06:49;;;;;;;18.23;9.70;;;5.80;99.90;;;;;;5036595;28;20794;-67
2022/12/25 05:09:16;;;;;;;21.83;12.17;;;5.80;99.90;;;;;;5036317;28;20460;-67
2022/12/25 05:11:43;;;;;;;14.60;10.37;;;5.80;99.90;;;;;;5036736;28;20452;-68
2022/12/25 05:14:11;;;;;;;23.97;9.87;;;5.80;99.90;;;;;;5036518;28;20463;-68
2022/12/25 05:16:38;;;;;;;21.60;9.77;;;5.70;99.90;;;;;;5036585;28;20468;-67
2022/12/25 05:19:05;;;;;;;19.00;10.30;;;5.80;99.90;;;;;;5036390;28;20463;-66
2022/12/25 05:21:31;;;;;;;22.87;10.23;;;5.70;99.90;;;;;;5036562;28;20484;-67
2022/12/25 05:23:58;;;;;;;23.27;9.87;;;5.70;99.90;;;;;;5036348;28;20469;-67
2022/12/25 05:26:26;;;;;;;19.00;9.70;;;5.70;99.90;;;;;;5035977;28;20460;-65
2022/12/25 05:28:54;;;;;;;22.30;9.93;;;5.70;99.90;;;;;;5035762;28;20579;-68
2022/12/25 05:31:23;;;;;;;19.67;9.23;;;5.70;99.90;;;;;;5036022;28;20943;-67
2022/12/25 05:33:51;;;;;;;20.70;10.17;;;5.60;99.90;;;;;;5035948;28;20466;-67
2022/12/25 05:36:18;;;;;;;25.80;10.43;;;5.60;99.90;;;;;;5035855;28;20762;-67
2022/12/25 05:38:45;;;;;;;22.10;9.70;;;5.60;99.90;;;;;;5035434;28;20460;-67
2022/12/25 05:41:12;;;;;;;23.20;9.90;;;5.60;99.90;;;;;;5035937;28;20491;-68
2022/12/25 05:43:39;;;;;;;18.80;9.00;;;5.50;99.90;;;;;;5036107;28;20559;-67
2022/12/25 05:46:07;;;;;;;26.90;10.37;;;5.50;99.90;;;;;;5035449;28;20993;-67
2022/12/25 05:48:36;;;;;;;22.63;9.30;;;5.40;99.90;;;;;;5036108;28;20456;-67
2022/12/25 05:51:07;;;;;;;20.30;9.30;;;5.40;99.90;;;;;;5035758;28;20538;-67
2022/12/25 05:53:34;;;;;;;19.53;8.53;;;5.40;99.90;;;;;;5035330;28;20928;-67
2022/12/25 05:56:02;;;;;;;17.63;9.50;;;5.30;99.90;;;;;;5035291;28;20472;-67
2022/12/25 05:58:29;;;;;;;18.90;9.40;;;5.30;99.90;;;;;;5035700;28;20456;-67
2022/12/25 06:00:57;;;;;;;14.00;8.90;;;5.30;99.90;;;;;;5035190;28;20972;-67
2022/12/25 06:03:25;;;;;;;17.37;9.33;;;5.20;99.90;;;;;;5035004;28;20466;-67
2022/12/25 06:05:53;;;;;;;19.90;9.80;;;5.20;99.90;;;;;;5035315;28;20765;-67
2022/12/25 06:08:20;;;;;;;16.67;9.43;;;5.20;99.90;;;;;;5035402;28;20768;-68
2022/12/25 06:10:48;;;;;;;20.60;10.20;;;5.20;99.90;;;;;;5035423;28;20518;-67
2022/12/25 06:13:14;;;;;;;26.67;9.77;;;5.20;99.90;;;;;;5035073;28;20456;-67
2022/12/25 06:15:42;;;;;;;20.00;9.40;;;5.20;99.90;;;;;;5035150;28;20812;-67
2022/12/25 06:18:09;;;;;;;18.97;9.83;;;5.20;99.90;;;;;;5035258;28;20456;-67
2022/12/25 06:20:36;;;;;;;19.53;9.60;;;5.20;99.90;;;;;;5035275;28;20480;-68
2022/12/25 06:23:04;;;;;;;24.37;9.60;;;5.30;99.90;;;;;;5035065;28;20492;-67
2022/12/25 06:25:31;;;;;;;17.67;9.63;;;5.20;99.90;;;;;;5034953;28;20460;-67
2022/12/25 06:27:58;;;;;;;22.33;10.00;;;5.20;99.90;;;;;;5035145;28;20460;-67
2022/12/25 06:30:25;;;;;;;22.43;10.90;;;5.20;99.90;;;;;;5034751;28;20456;-68
2022/12/25 06:32:52;;;;;;;22.23;10.20;;;5.20;99.90;;;;;;5035185;28;20475;-68
2022/12/25 06:35:19;;;;;;;21.33;9.87;;;5.10;99.90;;;;;;5035118;28;20490;-66
2022/12/25 06:37:46;;;;;;;25.40;11.47;;;5.10;99.90;;;;;;5034701;28;20491;-67
2022/12/25 06:40:14;;;;;;;15.80;9.40;;;5.10;99.90;;;;;;5034760;28;20479;-67
2022/12/25 06:42:41;;;;;;;25.97;9.40;;;5.10;99.90;;;;;;5034868;28;20467;-65
2022/12/25 06:45:09;;;;;;;25.20;11.10;;;5.10;99.90;;;;;;5034923;28;20482;-67
2022/12/25 06:47:37;;;;;;;19.23;9.80;;;5.00;99.90;;;;;;5034904;28;20451;-68
2022/12/25 06:50:04;;;;;;;22.17;9.93;;;5.00;99.90;;;;;;5035270;28;20459;-67
2022/12/25 06:52:32;;;;;;;17.27;9.90;;;5.00;99.90;;;;;;5035403;28;20799;-67
2022/12/25 06:54:58;;;;;;;23.60;9.23;;;5.00;99.90;;;;;;5034972;28;20518;-68
2022/12/25 06:57:27;;;;;;;22.63;11.07;;;5.00;99.90;;;;;;5034834;28;20456;-68
2022/12/25 06:59:53;;;;;;;20.07;11.00;;;5.00;99.90;;;;;;5034715;28;20455;-67
2022/12/25 07:02:23;;;;;;;24.03;10.20;;;4.90;99.90;;;;;;5034985;28;20470;-68
2022/12/25 07:04:50;;;;;;;19.67;11.00;;;4.90;99.90;;;;;;5034780;28;20456;-66
2022/12/25 07:07:17;;;;;;;29.00;12.03;;;4.90;99.90;;;;;;5034456;28;20555;-68
2022/12/25 07:09:44;;;;;;;31.63;11.77;;;4.80;99.90;;;;;;5034622;28;20456;-67
2022/12/25 07:12:16;;;;;;;24.57;11.83;;;4.70;99.90;;;;;;5034670;28;20452;-67
2022/12/25 07:14:47;;;;;;;21.30;12.20;;;4.70;99.90;;;;;;5034780;28;20448;-67
2022/12/25 07:17:14;;;;;;;29.87;12.40;;;4.60;99.90;;;;;;5039052;28;20459;-67
2022/12/25 07:19:41;;;;;;;25.77;12.77;;;4.50;99.90;;;;;;5038688;28;20460;-66
2022/12/25 07:22:08;;;;;;;30.30;14.43;;;4.50;99.90;;;;;;5038581;28;20491;-67
2022/12/25 07:24:35;;;;;;;34.47;14.17;;;4.50;99.90;;;;;;5038802;28;20470;-67
2022/12/25 07:27:02;;;;;;;30.87;13.90;;;4.40;99.90;;;;;;5038818;28;20467;-67
2022/12/25 07:29:29;;;;;;;28.53;15.00;;;4.40;99.90;;;;;;5038423;28;20483;-67
2022/12/25 07:31:57;;;;;;;31.60;14.77;;;4.50;99.90;;;;;;5038303;28;20467;-68
2022/12/25 07:34:24;;;;;;;30.37;15.90;;;4.40;99.90;;;;;;5038473;28;20456;-68
2022/12/25 07:36:50;;;;;;;29.90;14.87;;;4.40;99.90;;;;;;5038233;28;20464;-67
2022/12/25 07:39:17;;;;;;;28.60;15.30;;;4.40;99.90;;;;;;5037942;28;20944;-67
2022/12/25 07:41:44;;;;;;;28.63;13.87;;;4.50;99.90;;;;;;5038106;28;20494;-68
2022/12/25 07:44:11;;;;;;;34.00;14.87;;;4.50;99.90;;;;;;5037995;28;20463;-67
2022/12/25 07:46:38;;;;;;;31.53;13.57;;;4.50;99.90;;;;;;5037900;28;20484;-67
2022/12/25 07:49:06;;;;;;;27.63;14.67;;;4.50;99.90;;;;;;5037980;28;20456;-67
2022/12/25 07:51:33;;;;;;;23.90;12.10;;;4.60;99.90;;;;;;5037530;28;20462;-67
2022/12/25 07:54:00;;;;;;;26.93;13.20;;;4.60;99.90;;;;;;5038093;28;20459;-68
2022/12/25 07:56:27;;;;;;;21.90;12.20;;;4.60;99.90;;;;;;5037686;28;20795;-67
2022/12/25 07:58:54;;;;;;;30.50;13.27;;;4.70;99.90;;;;;;5037391;28;20948;-67
2022/12/25 08:01:22;;;;;;;26.10;12.57;;;4.70;99.90;;;;;;5037631;28;20498;-68
2022/12/25 08:03:50;;;;;;;21.50;12.50;;;4.80;99.90;;;;;;5037515;28;20878;-67
2022/12/25 08:06:19;;;;;;;21.83;13.03;;;4.70;99.90;;;;;;5037250;28;20456;-66
2022/12/25 08:08:46;;;;;;;24.40;11.67;;;4.70;99.90;;;;;;5037581;28;20466;-67
2022/12/25 08:11:13;;;;;;;23.00;11.73;;;4.70;99.90;;;;;;5037364;28;20451;-67
2022/12/25 08:13:39;;;;;;;26.13;12.10;;;4.70;99.90;;;;;;5037761;28;20459;-67
2022/12/25 08:16:09;;;;;;;20.33;11.23;;;4.70;99.90;;;;;;5036995;28;20456;-68
2022/12/25 08:18:36;;;;;;;20.50;9.00;;;4.60;99.90;;;;;;5037256;28;20466;-67
2022/12/25 08:21:05;;;;;;;23.77;10.50;;;4.60;99.90;;;;;;5036917;28;20964;-67
2022/12/25 08:23:36;;;;;;;15.93;8.90;;;4.60;99.90;;;;;;5036937;28;20456;-67
2022/12/25 08:26:05;;;;;;;23.97;9.67;;;4.50;99.90;;;;;;5036961;28;20444;-68
2022/12/25 08:28:32;;;;;;;14.00;9.17;;;4.50;99.90;;;;;;5037170;28;20463;-67
2022/12/25 08:30:59;;;;;;;19.40;8.43;;;4.50;99.90;;;;;;5036835;28;20470;-65
2022/12/25 08:33:26;;;;;;;19.80;10.03;;;4.50;99.90;;;;;;5036811;28;20455;-67
2022/12/25 08:35:53;;;;;;;21.30;9.80;;;4.60;99.90;;;;;;5036981;28;20474;-68
2022/12/25 08:38:20;;;;;;;19.40;9.40;;;4.60;99.90;;;;;;5036867;28;20457;-67
2022/12/25 08:40:48;;;;;;;18.40;9.53;;;4.70;99.90;;;;;;5036445;28;20476;-67
2022/12/25 08:43:14;;;;;;;20.53;10.77;;;4.80;99.90;;;;;;5037095;28;20471;-66
2022/12/25 08:45:42;;;;;;;16.73;10.70;;;4.90;99.90;;;;;;5036344;28;20488;-66
2022/12/25 08:48:08;;;;;;;19.40;10.90;;;5.00;99.90;;;;;;5037158;28;20915;-67
2022/12/25 08:50:35;;;;;;;24.50;13.43;;;5.10;99.90;;;;;;5036937;28;20456;-66
2022/12/25 08:53:02;;;;;;;32.90;16.30;;;5.20;99.90;;;;;;5036813;28;20784;-68
2022/12/25 08:55:29;;;;;;;30.53;13.70;;;5.30;99.90;;;;;;5036933;28;20470;-67
2022/12/25 08:57:57;;;;;;;32.37;14.63;;;5.50;99.90;;;;;;5036774;28;20460;-68
2022/12/25 09:00:24;;;;;;;33.80;16.57;;;5.60;99.90;;;;;;5036663;28;20456;-67
2022/12/25 09:02:51;;;;;;;29.53;14.50;;;5.70;99.90;;;;;;5036389;28;20506;-67
2022/12/25 09:05:17;;;;;;;24.77;13.50;;;5.80;99.90;;;;;;5036814;28;20456;-68
2022/12/25 09:07:44;;;;;;;26.20;12.47;;;6.00;99.90;;;;;;5037819;28;20461;-67
2022/12/25 09:10:11;;;;;;;19.97;11.90;;;6.00;99.90;;;;;;5038957;28;20778;-66
2022/12/25 09:12:38;;;;;;;19.13;10.90;;;6.10;99.90;;;;;;5038367;28;20456;-66
2022/12/25 09:15:08;;;;;;;18.50;11.00;;;6.10;99.90;;;;;;5039244;28;20460;-67
2022/12/25 09:17:34;;;;;;;22.73;9.73;;;6.00;99.90;;;;;;5040081;28;20459;-67
2022/12/25 09:20:01;;;;;;;16.17;9.83;;;5.90;99.90;;;;;;5040989;28;20466;-67
2022/12/25 09:22:28;;;;;;;14.50;9.63;;;5.80;99.90;;;;;;5038901;28;20512;-67
2022/12/25 09:24:55;;;;;;;17.07;8.90;;;5.80;99.90;;;;;;5037598;28;20483;-67
2022/12/25 09:27:22;;;;;;;15.80;9.83;;;5.80;99.90;;;;;;5036576;28;20457;-68
2022/12/25 09:29:49;;;;;;;13.67;9.73;;;5.80;99.90;;;;;;5037329;28;20462;-67
2022/12/25 09:32:17;;;;;;;14.60;9.20;;;5.80;99.90;;;;;;5036907;28;20778;-67
2022/12/25 09:34:44;;;;;;;13.87;9.90;;;5.80;99.90;;;;;;5036035;28;20456;-65
2022/12/25 09:37:11;;;;;;;15.10;9.63;;;5.90;99.90;;;;;;5036159;28;20825;-67
2022/12/25 09:39:38;;;;;;;15.90;10.83;;;5.90;99.90;;;;;;5035403;28;20551;-66
2022/12/25 09:42:13;;;;;;;18.20;10.53;;;5.90;99.90;;;;;;5035731;28;20480;-67
2022/12/25 09:44:43;;;;;;;16.23;9.50;;;6.00;99.90;;;;;;5036817;28;20877;-67
2022/12/25 09:47:13;;;;;;;18.30;10.97;;;6.00;99.90;;;;;;5035772;28;20484;-67
2022/12/25 09:49:49;;;;;;;18.80;10.80;;;6.00;99.90;;;;;;5035711;28;20455;-67
2022/12/25 09:52:19;;;;;;;16.67;9.93;;;6.10;99.90;;;;;;5035847;28;20775;-67
2022/12/25 09:54:54;;;;;;;18.67;13.03;;;6.10;99.90;;;;;;5035983;28;20451;-67
2022/12/25 09:57:21;;;;;;;19.70;12.70;;;6.20;99.90;;;;;;5035545;28;20771;-67
2022/12/25 09:59:48;;;;;;;22.77;11.30;;;6.20;99.90;;;;;;5035533;28;20470;-67
2022/12/25 10:02:36;;;;;;;21.80;12.80;;;6.10;99.90;;;;;;5035411;28;20491;-67
2022/12/25 10:05:30;;;;;;;20.90;11.33;;;6.00;99.90;;;;;;5035420;28;20817;-66
2022/12/25 10:08:04;;;;;;;20.67;11.80;;;5.90;99.90;;;;;;5034585;28;20460;-66
2022/12/25 10:10:46;;;;;;;25.60;12.93;;;5.80;99.90;;;;;;5036289;28;20867;-68
2022/12/25 10:13:33;;;;;;;24.53;12.83;;;5.80;99.90;;;;;;5035271;28;20451;-67
2022/12/25 10:16:11;;;;;;;23.30;13.77;;;5.80;99.90;;;;;;5035558;28;20448;-68
2022/12/25 10:18:57;;;;;;;20.40;12.93;;;5.80;99.90;;;;;;5035346;28;20582;-67
2022/12/25 10:21:26;;;;;;;24.53;13.70;;;5.80;99.90;;;;;;5035235;28;20468;-68
2022/12/25 10:24:04;;;;;;;24.83;14.30;;;6.00;99.90;;;;;;5034952;28;20456;-67
2022/12/25 10:26:33;;;;;;;26.00;13.87;;;6.00;99.90;;;;;;5035322;28;20746;-67
2022/12/25 10:29:05;;;;;;;29.13;15.50;;;6.20;99.90;;;;;;5034719;28;20933;-67
2022/12/25 10:31:36;;;;;;;24.87;14.30;;;6.30;99.90;;;;;;5035049;28;20440;-68
2022/12/25 10:34:04;;;;;;;23.13;13.77;;;6.40;99.90;;;;;;5034729;28;20960;-66
2022/12/25 10:36:33;;;;;;;21.67;13.57;;;6.50;99.90;;;;;;5034394;28;20509;-67
2022/12/25 10:38:59;;;;;;;23.33;12.43;;;6.60;99.90;;;;;;5034422;28;20942;-68
2022/12/25 10:41:41;;;;;;;21.17;12.87;;;6.60;99.90;;;;;;5034637;28;20483;-67
2022/12/25 10:44:19;;;;;;;21.70;12.00;;;6.50;99.90;;;;;;5034829;28;20444;-67
2022/12/25 10:46:48;;;;;;;20.90;13.20;;;6.40;99.90;;;;;;5034467;28;20483;-67
2022/12/25 10:49:16;;;;;;;21.83;12.33;;;6.40;99.90;;;;;;5034297;28;20939;-67
2022/12/25 10:51:45;;;;;;;22.27;13.07;;;6.40;99.90;;;;;;5035073;28;20463;-67
2022/12/25 10:54:22;;;;;;;24.37;12.43;;;6.40;99.90;;;;;;5034561;28;20488;-68
2022/12/25 10:56:57;;;;;;;19.17;11.80;;;6.40;99.90;;;;;;5034836;28;20444;-65
2022/12/25 10:59:25;;;;;;;19.63;11.47;;;6.40;99.90;;;;;;5034545;28;20465;-67
2022/12/25 11:01:52;;;;;;;21.00;11.83;;;6.40;99.90;;;;;;5034433;28;20480;-66
2022/12/25 11:04:20;;;;;;;24.03;13.10;;;6.40;99.90;;;;;;5034461;28;20780;-67
2022/12/25 11:06:58;;;;;;;23.23;12.97;;;6.40;99.90;;;;;;5034513;28;20543;-66
2022/12/25 11:09:25;;;;;;;24.97;13.63;;;6.40;99.90;;;;;;5034622;28;20448;-66
2022/12/25 11:11:53;;;;;;;27.73;14.60;;;6.40;99.90;;;;;;5034674;28;20916;-67
2022/12/25 11:14:22;;;;;;;23.50;13.27;;;6.40;99.90;;;;;;5042568;28;20550;-68
2022/12/25 11:16:49;;;;;;;23.23;13.23;;;6.50;99.90;;;;;;5054433;28;20521;-67
2022/12/25 11:19:28;;;;;;;27.53;12.20;;;6.50;99.90;;;;;;5038310;28;20460;-70
2022/12/25 11:22:00;;;;;;;23.10;13.00;;;6.60;99.90;;;;;;5034727;28;20574;-67
2022/12/25 11:24:29;;;;;;;21.73;12.73;;;6.60;99.90;;;;;;5034554;28;20476;-68
2022/12/25 11:26:58;;;;;;;21.43;12.97;;;6.70;99.90;;;;;;5034798;28;20452;-68
2022/12/25 11:29:32;;;;;;;20.97;12.73;;;6.70;99.90;;;;;;5036127;28;20542;-67
2022/12/25 11:32:02;;;;;;;30.67;13.10;;;6.70;99.90;;;;;;5034234;28;20960;-68
2022/12/25 11:34:32;;;;;;;22.37;13.97;;;6.60;99.90;;;;;;5034373;28;20780;-68
2022/12/25 11:37:02;;;;;;;25.17;13.40;;;6.60;99.90;;;;;;5034351;28;20502;-66
2022/12/25 11:39:31;;;;;;;23.50;13.50;;;6.60;99.90;;;;;;5034061;28;20471;-67
2022/12/25 11:42:01;;;;;;;21.00;13.70;;;6.60;99.90;;;;;;5034129;28;20867;-67
2022/12/25 11:44:40;;;;;;;24.10;13.83;;;6.60;99.90;;;;;;5034362;28;20547;-68
2022/12/25 11:47:14;;;;;;;19.30;13.30;;;6.60;99.90;;;;;;5033981;28;20493;-67
2022/12/25 11:49:47;;;;;;;25.13;13.70;;;6.60;99.90;;;;;;5034343;28;20439;-68
2022/12/25 11:52:18;;;;;;;21.57;13.13;;;6.60;99.90;;;;;;5034445;28;20527;-67
2022/12/25 11:54:51;;;;;;;24.17;13.30;;;6.70;99.90;;;;;;5035016;28;20789;-66
2022/12/25 11:57:18;;;;;;;22.87;14.07;;;6.80;99.90;;;;;;5034617;28;20526;-67
2022/12/25 11:59:52;;;;;;;26.57;14.67;;;6.80;99.90;;;;;;5034474;28;20460;-68
2022/12/25 12:02:28;;;;;;;21.37;12.70;;;6.80;99.90;;;;;;5036273;28;20913;-67
2022/12/25 12:05:11;;;;;;;18.90;12.43;;;6.90;99.90;;;;;;5038064;28;20439;-66
2022/12/25 12:07:57;;;;;;;20.10;13.87;;;6.90;99.90;;;;;;5038005;28;20535;-68
2022/12/25 12:10:34;;;;;;;20.30;12.33;;;6.90;99.90;;;;;;5037729;28;20523;-68
2022/12/25 12:13:16;;;;;;;16.00;12.27;;;6.90;99.90;;;;;;5037702;28;20528;-66
2022/12/25 12:15:45;;;;;;;18.40;11.13;;;6.90;99.90;;;;;;5021462;28;20548;-67
2022/12/25 12:18:21;;;;;;;21.23;12.53;;;6.90;99.90;;;;;;5037285;28;20532;-67
2022/12/25 12:20:59;;;;;;;20.40;13.97;;;6.80;99.90;;;;;;5037735;28;20440;-67
2022/12/25 12:23:30;;;;;;;30.93;16.67;;;6.80;99.90;;;;;;5037406;28;20474;-66
2022/12/25 12:25:57;;;;;;;21.20;14.43;;;6.80;99.90;;;;;;5038344;28;20546;-67
2022/12/25 12:28:27;;;;;;;20.47;12.70;;;6.80;99.90;;;;;;5038078;28;20460;-68
2022/12/25 12:31:03;;;;;;;14.37;10.10;;;6.90;99.90;;;;;;5038257;28;20470;-68
2022/12/25 12:33:34;;;;;;;16.50;10.53;;;6.90;99.90;;;;;;5037449;28;20789;-66
2022/12/25 12:36:04;;;;;;;16.93;10.10;;;6.90;99.90;;;;;;5037210;28;20527;-68
2022/12/25 12:38:34;;;;;;;15.23;10.33;;;6.90;99.90;;;;;;5037134;28;20912;-68
2022/12/25 12:41:02;;;;;;;13.60;9.43;;;6.90;99.90;;;;;;5036912;28;20530;-67
2022/12/25 12:43:34;;;;;;;12.83;8.80;;;6.90;99.90;;;;;;5036984;28;20482;-68
2022/12/25 12:46:05;;;;;;;16.07;9.80;;;7.00;99.90;;;;;;5036758;28;20484;-66
2022/12/25 12:48:39;;;;;;;13.60;9.63;;;7.00;99.90;;;;;;5036900;28;20885;-67
2022/12/25 12:51:07;;;;;;;13.60;9.67;;;7.10;99.90;;;;;;5037260;28;20444;-66
2022/12/25 12:53:37;;;;;;;16.93;8.10;;;7.10;99.90;;;;;;5036937;28;20451;-67
2022/12/25 12:56:12;;;;;;;13.40;8.80;;;7.00;99.90;;;;;;5037001;28;20803;-67
2022/12/25 12:58:44;;;;;;;11.90;7.90;;;7.00;99.90;;;;;;5036295;28;20932;-67
2022/12/25 13:01:30;;;;;;;12.37;8.30;;;7.00;99.90;;;;;;5036576;28;20776;-68
2022/12/25 13:04:30;;;;;;;12.93;7.63;;;6.90;99.90;;;;;;5036243;28;20474;-68
2022/12/25 13:07:09;;;;;;;10.57;7.60;;;7.00;99.90;;;;;;5031475;28;20448;-68
2022/12/25 13:09:52;;;;;;;13.13;8.30;;;7.00;99.90;;;;;;5036131;28;20436;-68
2022/12/25 13:12:22;;;;;;;14.20;8.73;;;7.00;99.90;;;;;;5036340;28;20450;-67
2022/12/25 13:14:49;;;;;;;12.00;7.90;;;7.00;99.90;;;;;;5035474;28;20452;-67
2022/12/25 13:17:19;;;;;;;10.23;8.00;;;7.10;99.90;;;;;;5036443;28;20539;-67
2022/12/25 13:19:47;;;;;;;10.83;7.50;;;7.10;99.90;;;;;;5036633;28;20549;-67
2022/12/25 13:22:24;;;;;;;10.40;7.53;;;7.20;99.90;;;;;;5036139;28;20484;-67
2022/12/25 13:25:03;;;;;;;11.13;7.07;;;7.20;99.90;;;;;;5036107;28;20444;-67
2022/12/25 13:27:32;;;;;;;9.23;7.10;;;7.30;99.90;;;;;;5036062;28;20444;-67
2022/12/25 13:29:59;;;;;;;13.03;8.00;;;7.30;99.90;;;;;;5036309;28;20464;-68
2022/12/25 13:32:28;;;;;;;14.40;7.70;;;7.30;99.90;;;;;;5035929;28;20466;-68
2022/12/25 13:34:55;;;;;;;9.00;7.53;;;7.30;99.90;;;;;;5036105;28;20456;-67
2022/12/25 13:37:24;;;;;;;10.47;7.97;;;7.30;99.90;;;;;;5036248;28;20770;-68
2022/12/25 13:39:54;;;;;;;10.10;7.60;;;7.30;99.90;;;;;;5036802;28;20460;-67
2022/12/25 13:42:24;;;;;;;9.67;7.13;;;7.20;99.90;;;;;;5036066;28;20476;-67
2022/12/25 13:44:54;;;;;;;8.23;6.70;;;7.20;99.90;;;;;;5035865;28;20592;-67
2022/12/25 13:47:24;;;;;;;7.93;6.60;;;7.20;99.90;;;;;;5035582;28;20487;-66
2022/12/25 13:49:52;;;;;;;10.40;7.23;;;7.20;99.90;;;;;;5035505;28;20466;-67
2022/12/25 13:52:21;;;;;;;9.27;7.27;;;7.20;99.90;;;;;;5035668;28;20795;-68
2022/12/25 13:55:11;;;;;;;9.70;6.73;;;7.20;99.90;;;;;;5035756;28;20460;-68
2022/12/25 13:57:42;;;;;;;11.17;6.43;;;7.20;99.90;;;;;;5035666;28;20776;-68
2022/12/25 14:00:19;;;;;;;11.27;6.57;;;7.20;99.90;;;;;;5035281;28;20440;-66
2022/12/25 14:02:46;;;;;;;10.07;7.73;;;7.20;99.90;;;;;;5035228;28;20468;-67
2022/12/25 14:05:24;;;;;;;9.80;7.53;;;7.30;99.90;;;;;;5035455;28;20769;-67
2022/12/25 14:07:52;;;;;;;9.73;6.60;;;7.20;99.90;;;;;;5035453;28;20452;-67
2022/12/25 14:10:20;;;;;;;10.90;7.27;;;7.20;99.90;;;;;;5035218;28;20463;-68
2022/12/25 14:12:50;;;;;;;11.00;7.50;;;7.30;99.90;;;;;;5035061;28;20452;-67
2022/12/25 14:15:20;;;;;;;9.83;7.23;;;7.30;99.90;;;;;;5035614;28;20484;-66
2022/12/25 14:17:48;;;;;;;12.30;7.63;;;7.30;99.90;;;;;;5035768;28;20455;-67
2022/12/25 14:20:23;;;;;;;14.20;8.90;;;7.30;99.90;;;;;;5035019;28;20464;-67
2022/12/25 14:22:52;;;;;;;13.93;8.17;;;7.20;99.90;;;;;;5034762;28;20952;-67
2022/12/25 14:25:19;;;;;;;11.17;7.50;;;7.20;99.90;;;;;;5034475;28;20471;-68
2022/12/25 14:27:50;;;;;;;10.93;8.37;;;7.20;99.90;;;;;;5034760;28;20460;-68
2022/12/25 14:30:17;;;;;;;16.40;7.83;;;7.20;99.90;;;;;;5035190;28;20440;-68
2022/12/25 14:32:49;;;;;;;11.70;7.20;;;7.20;99.90;;;;;;5034914;28;20456;-67
2022/12/25 14:35:17;;;;;;;16.00;9.37;;;7.10;99.90;;;;;;5034503;28;20452;-66
2022/12/25 14:37:45;;;;;;;17.00;8.40;;;7.10;99.90;;;;;;5034986;28;20460;-67
2022/12/25 14:40:23;;;;;;;13.70;9.50;;;7.10;99.90;;;;;;5035012;28;20817;-68